WXM80 ListenWXM80 Stop

You find our weather info also at:

UK Metoffice

WeatherCloud

Weather Underground

Northeastern Weather Network

AWEKAS

Citizen Weather Observer Program (CWOP)

HAMweather, WeatherForYou, PWS Weather


Weather Underground History page Text

Daily Summary for August 11, 2017 Units:  Both    English   Metric
« Previous Day
Next Day »
Daily Weekly Monthly Yearly Custom
  High: Low: Average:
Temperature: 85.4 °F /  29.7 °C 63.3 °F /  17.4 °C 72.9 °F /  22.7 °C
Dew Point: 70.1 °F /  21.2 °C 56.9 °F /  13.8 °C 62.8 °F /  17.1 °C
Humidity: 97 % 50 % 73 %
Wind Speed: 6.0 mph /  9.7 km/h - 0.7 mph /  1.1 km/h
Wind Gust: 13.8 mph /  22.2 km/h - -
Wind:- - SSE
Pressure: 30.14 in /  1020.5 hPa 29.96 in /  1014.4 hPa -
Precipitation: 0.00 in /  0 mm    
Historical Graphs
 
 
Tabular Data for August 11, 2017
Time Temperature Dew Point Pressure Wind Wind Speed Wind Gust Humidity Rainfall Rate (Hourly)
00:01 65.8 °F /  18.8 °C 61.5 °F /  16.4 °C 30.13 in /  1020.2 hPa Calm     86 % 0.00 in /  0 mm
00:06 65.6 °F /  18.7 °C 61.6 °F /  16.4 °C 30.13 in /  1020.2 hPa Calm     87 % 0.00 in /  0 mm
00:11 65.5 °F /  18.6 °C 61.5 °F /  16.4 °C 30.13 in /  1020.2 hPa Calm     87 % 0.00 in /  0 mm
00:17 65.4 °F /  18.6 °C 61.8 °F /  16.6 °C 30.14 in /  1020.5 hPa Calm     88 % 0.00 in /  0 mm
00:22 65.3 °F /  18.5 °C 61.7 °F /  16.5 °C 30.13 in /  1020.2 hPa Calm     88 % 0.00 in /  0 mm
00:27 65.1 °F /  18.4 °C 61.1 °F /  16.2 °C 30.14 in /  1020.5 hPa Calm     87 % 0.00 in /  0 mm
00:32 65.0 °F /  18.3 °C 61.4 °F /  16.3 °C 30.14 in /  1020.5 hPa Calm     88 % 0.00 in /  0 mm
00:37 64.9 °F /  18.3 °C 61.3 °F /  16.3 °C 30.14 in /  1020.5 hPa Calm     88 % 0.00 in /  0 mm
00:42 64.8 °F /  18.2 °C 61.2 °F /  16.2 °C 30.14 in /  1020.5 hPa Calm     88 % 0.00 in /  0 mm
00:47 64.7 °F /  18.2 °C 61.1 °F /  16.2 °C 30.14 in /  1020.5 hPa Calm     88 % 0.00 in /  0 mm
00:52 64.6 °F /  18.1 °C 61.3 °F /  16.3 °C 30.13 in /  1020.2 hPa Calm     89 % 0.00 in /  0 mm
00:57 64.5 °F /  18.1 °C 61.2 °F /  16.2 °C 30.13 in /  1020.2 hPa Calm     89 % 0.00 in /  0 mm
01:02 64.4 °F /  18 °C 61.1 °F /  16.2 °C 30.13 in /  1020.2 hPa Calm     89 % 0.00 in /  0 mm
01:07 64.3 °F /  17.9 °C 61.0 °F /  16.1 °C 30.13 in /  1020.2 hPa Calm     89 % 0.00 in /  0 mm
01:12 64.2 °F /  17.9 °C 60.9 °F /  16.1 °C 30.13 in /  1020.2 hPa Calm     89 % 0.00 in /  0 mm
01:17 64.1 °F /  17.8 °C 60.8 °F /  16 °C 30.13 in /  1020.2 hPa Calm     89 % 0.00 in /  0 mm
01:22 64.0 °F /  17.8 °C 60.7 °F /  15.9 °C 30.13 in /  1020.2 hPa Calm     89 % 0.00 in /  0 mm
01:27 63.9 °F /  17.7 °C 60.6 °F /  15.9 °C 30.13 in /  1020.2 hPa Calm     89 % 0.00 in /  0 mm
01:32 63.8 °F /  17.7 °C 60.5 °F /  15.8 °C 30.13 in /  1020.2 hPa Calm     89 % 0.00 in /  0 mm
01:37 63.7 °F /  17.6 °C 60.4 °F /  15.8 °C 30.13 in /  1020.2 hPa Calm     89 % 0.00 in /  0 mm
01:42 63.6 °F /  17.6 °C 60.3 °F /  15.7 °C 30.13 in /  1020.2 hPa Calm     89 % 0.00 in /  0 mm
01:47 63.5 °F /  17.5 °C 60.2 °F /  15.7 °C 30.13 in /  1020.2 hPa Calm     89 % 0.00 in /  0 mm
01:53 63.5 °F /  17.5 °C 60.5 °F /  15.8 °C 30.13 in /  1020.2 hPa Calm     90 % 0.00 in /  0 mm
01:58 63.5 °F /  17.5 °C 60.8 °F /  16 °C 30.13 in /  1020.2 hPa Calm     91 % 0.00 in /  0 mm
02:03 63.4 °F /  17.4 °C 60.7 °F /  15.9 °C 30.13 in /  1020.2 hPa Calm     91 % 0.00 in /  0 mm
02:08 63.4 °F /  17.4 °C 60.7 °F /  15.9 °C 30.13 in /  1020.2 hPa Calm     91 % 0.00 in /  0 mm
02:13 63.4 °F /  17.4 °C 60.7 °F /  15.9 °C 30.12 in /  1019.9 hPa Calm     91 % 0.00 in /  0 mm
02:18 63.3 °F /  17.4 °C 60.6 °F /  15.9 °C 30.12 in /  1019.9 hPa Calm     91 % 0.00 in /  0 mm
02:23 63.3 °F /  17.4 °C 60.6 °F /  15.9 °C 30.12 in /  1019.9 hPa Calm     91 % 0.00 in /  0 mm
02:28 63.3 °F /  17.4 °C 60.9 °F /  16.1 °C 30.12 in /  1019.9 hPa Calm     92 % 0.00 in /  0 mm
02:33 63.3 °F /  17.4 °C 60.9 °F /  16.1 °C 30.12 in /  1019.9 hPa Calm     92 % 0.00 in /  0 mm
02:38 63.3 °F /  17.4 °C 60.9 °F /  16.1 °C 30.12 in /  1019.9 hPa Calm     92 % 0.00 in /  0 mm
02:43 63.4 °F /  17.4 °C 61.0 °F /  16.1 °C 30.12 in /  1019.9 hPa Calm     92 % 0.00 in /  0 mm
02:48 63.4 °F /  17.4 °C 61.3 °F /  16.3 °C 30.12 in /  1019.9 hPa Calm     93 % 0.00 in /  0 mm
02:53 63.5 °F /  17.5 °C 61.4 °F /  16.3 °C 30.12 in /  1019.9 hPa Calm     93 % 0.00 in /  0 mm
02:59 63.6 °F /  17.6 °C 61.5 °F /  16.4 °C 30.12 in /  1019.9 hPa Calm     93 % 0.00 in /  0 mm
03:04 63.6 °F /  17.6 °C 61.5 °F /  16.4 °C 30.12 in /  1019.9 hPa Calm     93 % 0.00 in /  0 mm
03:09 63.6 °F /  17.6 °C 61.5 °F /  16.4 °C 30.12 in /  1019.9 hPa Calm     93 % 0.00 in /  0 mm
03:14 63.6 °F /  17.6 °C 61.8 °F /  16.6 °C 30.12 in /  1019.9 hPa Calm     94 % 0.00 in /  0 mm
03:19 63.7 °F /  17.6 °C 61.9 °F /  16.6 °C 30.12 in /  1019.9 hPa Calm     94 % 0.00 in /  0 mm
03:24 63.7 °F /  17.6 °C 61.9 °F /  16.6 °C 30.12 in /  1019.9 hPa Calm     94 % 0.00 in /  0 mm
03:29 63.8 °F /  17.7 °C 62.0 °F /  16.7 °C 30.12 in /  1019.9 hPa Calm     94 % 0.00 in /  0 mm
03:34 63.8 °F /  17.7 °C 62.0 °F /  16.7 °C 30.12 in /  1019.9 hPa Calm     94 % 0.00 in /  0 mm
03:39 63.8 °F /  17.7 °C 62.0 °F /  16.7 °C 30.12 in /  1019.9 hPa Calm     94 % 0.00 in /  0 mm
03:44 63.9 °F /  17.7 °C 62.1 °F /  16.7 °C 30.12 in /  1019.9 hPa Calm     94 % 0.00 in /  0 mm
03:49 63.9 °F /  17.7 °C 62.1 °F /  16.7 °C 30.12 in /  1019.9 hPa Calm     94 % 0.00 in /  0 mm
03:54 64.0 °F /  17.8 °C 62.2 °F /  16.8 °C 30.12 in /  1019.9 hPa Calm     94 % 0.00 in /  0 mm
03:59 64.0 °F /  17.8 °C 62.2 °F /  16.8 °C 30.12 in /  1019.9 hPa Calm     94 % 0.00 in /  0 mm
04:04 64.1 °F /  17.8 °C 62.3 °F /  16.8 °C 30.12 in /  1019.9 hPa Calm     94 % 0.00 in /  0 mm
04:09 64.1 °F /  17.8 °C 62.3 °F /  16.8 °C 30.12 in /  1019.9 hPa Calm     94 % 0.00 in /  0 mm
04:14 64.1 °F /  17.8 °C 62.3 °F /  16.8 °C 30.11 in /  1019.5 hPa Calm     94 % 0.00 in /  0 mm
04:19 64.2 °F /  17.9 °C 62.4 °F /  16.9 °C 30.11 in /  1019.5 hPa Calm     94 % 0.00 in /  0 mm
04:24 64.2 °F /  17.9 °C 62.4 °F /  16.9 °C 30.11 in /  1019.5 hPa Calm     94 % 0.00 in /  0 mm
04:29 64.3 °F /  17.9 °C 62.5 °F /  16.9 °C 30.11 in /  1019.5 hPa Calm     94 % 0.00 in /  0 mm
04:34 64.3 °F /  17.9 °C 62.5 °F /  16.9 °C 30.11 in /  1019.5 hPa Calm     94 % 0.00 in /  0 mm
04:40 64.3 °F /  17.9 °C 62.5 °F /  16.9 °C 30.11 in /  1019.5 hPa Calm     94 % 0.00 in /  0 mm
04:45 64.4 °F /  18 °C 62.6 °F /  17 °C 30.11 in /  1019.5 hPa Calm     94 % 0.00 in /  0 mm
04:50 64.4 °F /  18 °C 62.6 °F /  17 °C 30.12 in /  1019.9 hPa Calm     94 % 0.00 in /  0 mm
04:55 64.4 °F /  18 °C 62.6 °F /  17 °C 30.12 in /  1019.9 hPa Calm     94 % 0.00 in /  0 mm
05:00 64.4 °F /  18 °C 62.6 °F /  17 °C 30.11 in /  1019.5 hPa Calm     94 % 0.00 in /  0 mm
05:05 64.4 °F /  18 °C 62.6 °F /  17 °C 30.11 in /  1019.5 hPa Calm     94 % 0.00 in /  0 mm
05:10 64.4 °F /  18 °C 62.6 °F /  17 °C 30.11 in /  1019.5 hPa Calm     94 % 0.00 in /  0 mm
05:15 64.4 °F /  18 °C 62.6 °F /  17 °C 30.11 in /  1019.5 hPa Calm     94 % 0.00 in /  0 mm
05:20 64.4 °F /  18 °C 62.6 °F /  17 °C 30.11 in /  1019.5 hPa Calm     94 % 0.00 in /  0 mm
05:25 64.3 °F /  17.9 °C 62.5 °F /  16.9 °C 30.11 in /  1019.5 hPa Calm     94 % 0.00 in /  0 mm
05:30 64.3 °F /  17.9 °C 62.5 °F /  16.9 °C 30.11 in /  1019.5 hPa Calm     94 % 0.00 in /  0 mm
05:35 64.2 °F /  17.9 °C 62.4 °F /  16.9 °C 30.11 in /  1019.5 hPa Calm     94 % 0.00 in /  0 mm
05:40 64.1 °F /  17.8 °C 62.0 °F /  16.7 °C 30.11 in /  1019.5 hPa Calm     93 % 0.00 in /  0 mm
05:45 64.0 °F /  17.8 °C 61.9 °F /  16.6 °C 30.11 in /  1019.5 hPa Calm     93 % 0.00 in /  0 mm
05:50 64.0 °F /  17.8 °C 61.9 °F /  16.6 °C 30.11 in /  1019.5 hPa Calm     93 % 0.00 in /  0 mm
05:55 63.8 °F /  17.7 °C 61.7 °F /  16.5 °C 30.11 in /  1019.5 hPa Calm     93 % 0.00 in /  0 mm
06:00 63.8 °F /  17.7 °C 61.7 °F /  16.5 °C 30.11 in /  1019.5 hPa Calm     93 % 0.00 in /  0 mm
06:05 63.6 °F /  17.6 °C 61.5 °F /  16.4 °C 30.11 in /  1019.5 hPa Calm     93 % 0.00 in /  0 mm
06:10 63.6 °F /  17.6 °C 61.5 °F /  16.4 °C 30.11 in /  1019.5 hPa Calm     93 % 0.00 in /  0 mm
06:15 63.5 °F /  17.5 °C 61.4 °F /  16.3 °C 30.11 in /  1019.5 hPa Calm     93 % 0.00 in /  0 mm
06:20 63.4 °F /  17.4 °C 61.3 °F /  16.3 °C 30.11 in /  1019.5 hPa Calm     93 % 0.00 in /  0 mm
06:26 63.4 °F /  17.4 °C 61.3 °F /  16.3 °C 30.11 in /  1019.5 hPa Calm     93 % 0.00 in /  0 mm
06:31 63.3 °F /  17.4 °C 61.3 °F /  16.3 °C 30.11 in /  1019.5 hPa Calm     93 % 0.00 in /  0 mm
06:36 63.3 °F /  17.4 °C 61.2 °F /  16.2 °C 30.11 in /  1019.5 hPa Calm     93 % 0.00 in /  0 mm
06:41 63.4 °F /  17.4 °C 61.6 °F /  16.4 °C 30.11 in /  1019.5 hPa Calm     94 % 0.00 in /  0 mm
06:46 63.4 °F /  17.4 °C 61.6 °F /  16.4 °C 30.11 in /  1019.5 hPa Calm     94 % 0.00 in /  0 mm
06:51 63.5 °F /  17.5 °C 61.7 °F /  16.5 °C 30.11 in /  1019.5 hPa Calm     94 % 0.00 in /  0 mm
06:56 63.6 °F /  17.6 °C 61.8 °F /  16.6 °C 30.11 in /  1019.5 hPa Calm     94 % 0.00 in /  0 mm
07:01 63.7 °F /  17.6 °C 62.2 °F /  16.8 °C 30.11 in /  1019.5 hPa Calm     95 % 0.00 in /  0 mm
07:06 63.8 °F /  17.7 °C 62.3 °F /  16.8 °C 30.11 in /  1019.5 hPa Calm     95 % 0.00 in /  0 mm
07:11 63.9 °F /  17.7 °C 62.4 °F /  16.9 °C 30.11 in /  1019.5 hPa Calm     95 % 0.00 in /  0 mm
07:16 64.3 °F /  17.9 °C 63.1 °F /  17.3 °C 30.12 in /  1019.9 hPa Calm     96 % 0.00 in /  0 mm
07:21 64.7 °F /  18.2 °C 63.5 °F /  17.5 °C 30.11 in /  1019.5 hPa Calm     96 % 0.00 in /  0 mm
07:26 65.2 °F /  18.4 °C 64.3 °F /  17.9 °C 30.11 in /  1019.5 hPa Calm     97 % 0.00 in /  0 mm
07:31 65.7 °F /  18.7 °C 64.5 °F /  18.1 °C 30.11 in /  1019.5 hPa Calm     96 % 0.00 in /  0 mm
07:36 65.9 °F /  18.8 °C 65.0 °F /  18.3 °C 30.12 in /  1019.9 hPa Calm     97 % 0.00 in /  0 mm
07:41 66.1 °F /  18.9 °C 64.9 °F /  18.3 °C 30.12 in /  1019.9 hPa Calm     96 % 0.00 in /  0 mm
07:46 66.3 °F /  19.1 °C 65.1 °F /  18.4 °C 30.12 in /  1019.9 hPa Calm     96 % 0.00 in /  0 mm
07:51 66.5 °F /  19.2 °C 65.0 °F /  18.3 °C 30.12 in /  1019.9 hPa SSW 0.5 mph /  0.8 km/h 1.2 mph /  1.9 km/h 95 % 0.00 in /  0 mm
07:56 66.7 °F /  19.3 °C 64.9 °F /  18.3 °C 30.12 in /  1019.9 hPa Calm   1.2 mph /  1.9 km/h 94 % 0.00 in /  0 mm
08:01 67.0 °F /  19.4 °C 64.6 °F /  18.1 °C 30.12 in /  1019.9 hPa SSW 0.1 mph /  0.2 km/h 1.2 mph /  1.9 km/h 92 % 0.00 in /  0 mm
08:06 67.3 °F /  19.6 °C 64.6 °F /  18.1 °C 30.12 in /  1019.9 hPa SSW 0.3 mph /  0.5 km/h 2.3 mph /  3.7 km/h 91 % 0.00 in /  0 mm
08:11 67.6 °F /  19.8 °C 64.2 °F /  17.9 °C 30.12 in /  1019.9 hPa SSW 0.1 mph /  0.2 km/h 1.0 mph /  1.6 km/h 89 % 0.00 in /  0 mm
08:16 67.9 °F /  19.9 °C 64.2 °F /  17.9 °C 30.12 in /  1019.9 hPa Calm   1.2 mph /  1.9 km/h 88 % 0.00 in /  0 mm
08:21 68.3 °F /  20.2 °C 63.9 °F /  17.7 °C 30.11 in /  1019.5 hPa Calm     86 % 0.00 in /  0 mm
08:26 68.6 °F /  20.3 °C 63.9 °F /  17.7 °C 30.11 in /  1019.5 hPa WSW 1.0 mph /  1.6 km/h 3.5 mph /  5.6 km/h 85 % 0.00 in /  0 mm
08:31 68.9 °F /  20.5 °C 63.2 °F /  17.3 °C 30.12 in /  1019.9 hPa WSW 0.4 mph /  0.6 km/h 2.3 mph /  3.7 km/h 82 % 0.00 in /  0 mm
08:37 69.1 °F /  20.6 °C 63.0 °F /  17.2 °C 30.12 in /  1019.9 hPa SW 1.4 mph /  2.3 km/h 2.0 mph /  3.2 km/h 81 % 0.00 in /  0 mm
08:42 69.4 °F /  20.8 °C 63.0 °F /  17.2 °C 30.12 in /  1019.9 hPa WSW 1.1 mph /  1.8 km/h 3.5 mph /  5.6 km/h 80 % 0.00 in /  0 mm
08:47 69.6 °F /  20.9 °C 62.8 °F /  17.1 °C 30.12 in /  1019.9 hPa WSW 2.6 mph /  4.2 km/h 3.5 mph /  5.6 km/h 79 % 0.00 in /  0 mm
08:52 69.8 °F /  21 °C 62.3 °F /  16.8 °C 30.12 in /  1019.9 hPa WSW 1.7 mph /  2.7 km/h 3.5 mph /  5.6 km/h 77 % 0.00 in /  0 mm
08:57 70.1 °F /  21.2 °C 61.8 °F /  16.6 °C 30.11 in /  1019.5 hPa SW 0.3 mph /  0.5 km/h 1.2 mph /  1.9 km/h 75 % 0.00 in /  0 mm
09:02 70.5 °F /  21.4 °C 59.8 °F /  15.4 °C 30.11 in /  1019.5 hPa Calm   2.3 mph /  3.7 km/h 69 % 0.00 in /  0 mm
09:07 71.0 °F /  21.7 °C 61.1 °F /  16.2 °C 30.11 in /  1019.5 hPa SE 0.6 mph /  1 km/h 3.5 mph /  5.6 km/h 71 % 0.00 in /  0 mm
09:12 71.4 °F /  21.9 °C 60.3 °F /  15.7 °C 30.11 in /  1019.5 hPa Calm   1.2 mph /  1.9 km/h 68 % 0.00 in /  0 mm
09:17 71.8 °F /  22.1 °C 60.7 °F /  15.9 °C 30.11 in /  1019.5 hPa SW 1.7 mph /  2.7 km/h 3.0 mph /  4.8 km/h 68 % 0.00 in /  0 mm
09:22 72.2 °F /  22.3 °C 60.6 °F /  15.9 °C 30.10 in /  1019.2 hPa SW 0.3 mph /  0.5 km/h 1.2 mph /  1.9 km/h 67 % 0.00 in /  0 mm
09:27 72.7 °F /  22.6 °C 61.1 °F /  16.2 °C 30.10 in /  1019.2 hPa Calm   1.2 mph /  1.9 km/h 67 % 0.00 in /  0 mm
09:32 73.2 °F /  22.9 °C 60.7 °F /  15.9 °C 30.10 in /  1019.2 hPa SW 0.9 mph /  1.4 km/h 2.3 mph /  3.7 km/h 65 % 0.00 in /  0 mm
09:37 73.5 °F /  23.1 °C 62.3 °F /  16.8 °C 30.10 in /  1019.2 hPa Calm   2.3 mph /  3.7 km/h 68 % 0.00 in /  0 mm
09:42 73.9 °F /  23.3 °C 61.4 °F /  16.3 °C 30.10 in /  1019.2 hPa SE 1.1 mph /  1.8 km/h 3.0 mph /  4.8 km/h 65 % 0.00 in /  0 mm
09:47 74.6 °F /  23.7 °C 62.9 °F /  17.2 °C 30.10 in /  1019.2 hPa SE 1.1 mph /  1.8 km/h 1.2 mph /  1.9 km/h 67 % 0.00 in /  0 mm
09:52 75.0 °F /  23.9 °C 63.3 °F /  17.4 °C 30.10 in /  1019.2 hPa Calm     67 % 0.00 in /  0 mm
09:57 75.4 °F /  24.1 °C 63.2 °F /  17.3 °C 30.10 in /  1019.2 hPa SE 0.4 mph /  0.6 km/h 1.2 mph /  1.9 km/h 66 % 0.00 in /  0 mm
10:02 76.0 °F /  24.4 °C 63.4 °F /  17.4 °C 30.10 in /  1019.2 hPa SW 2.2 mph /  3.5 km/h 3.5 mph /  5.6 km/h 65 % 0.00 in /  0 mm
10:08 76.6 °F /  24.8 °C 63.1 °F /  17.3 °C 30.10 in /  1019.2 hPa SW 0.3 mph /  0.5 km/h 2.3 mph /  3.7 km/h 63 % 0.00 in /  0 mm
10:13 77.4 °F /  25.2 °C 63.4 °F /  17.4 °C 30.10 in /  1019.2 hPa SSW 0.2 mph /  0.3 km/h 2.3 mph /  3.7 km/h 62 % 0.00 in /  0 mm
10:18 78.5 °F /  25.8 °C 65.8 °F /  18.8 °C 30.10 in /  1019.2 hPa Calm   3.5 mph /  5.6 km/h 65 % 0.00 in /  0 mm
10:23 79.1 °F /  26.2 °C 65.4 °F /  18.6 °C 30.10 in /  1019.2 hPa Calm     63 % 0.00 in /  0 mm
10:28 80.0 °F /  26.7 °C 66.3 °F /  19.1 °C 30.10 in /  1019.2 hPa SE 2.5 mph /  4 km/h 5.0 mph /  8 km/h 63 % 0.00 in /  0 mm
10:33 80.4 °F /  26.9 °C 65.2 °F /  18.4 °C 30.10 in /  1019.2 hPa SSE 0.1 mph /  0.2 km/h 1.2 mph /  1.9 km/h 60 % 0.00 in /  0 mm
10:43 81.3 °F /  27.4 °C 66.6 °F /  19.2 °C 30.10 in /  1019.2 hPa SSE 0.2 mph /  0.3 km/h 3.0 mph /  4.8 km/h 61 % 0.00 in /  0 mm
10:48 81.9 °F /  27.7 °C 66.2 °F /  19 °C 30.10 in /  1019.2 hPa Calm     59 % 0.00 in /  0 mm
10:53 82.3 °F /  27.9 °C 66.0 °F /  18.9 °C 30.10 in /  1019.2 hPa Calm     58 % 0.00 in /  0 mm
10:58 82.9 °F /  28.3 °C 66.6 °F /  19.2 °C 30.10 in /  1019.2 hPa ENE 0.5 mph /  0.8 km/h 2.0 mph /  3.2 km/h 58 % 0.00 in /  0 mm
11:03 83.0 °F /  28.3 °C 65.7 °F /  18.7 °C 30.10 in /  1019.2 hPa ENE 0.6 mph /  1 km/h 3.5 mph /  5.6 km/h 56 % 0.00 in /  0 mm
11:08 83.2 °F /  28.4 °C 66.4 °F /  19.1 °C 30.10 in /  1019.2 hPa North 0.6 mph /  1 km/h 3.5 mph /  5.6 km/h 57 % 0.00 in /  0 mm
11:13 83.2 °F /  28.4 °C 66.9 °F /  19.4 °C 30.10 in /  1019.2 hPa NE 1.4 mph /  2.3 km/h 3.5 mph /  5.6 km/h 58 % 0.00 in /  0 mm
11:18 83.2 °F /  28.4 °C 66.4 °F /  19.1 °C 30.10 in /  1019.2 hPa NNE 2.0 mph /  3.2 km/h 3.5 mph /  5.6 km/h 57 % 0.00 in /  0 mm
11:23 83.4 °F /  28.6 °C 65.5 °F /  18.6 °C 30.10 in /  1019.2 hPa NNE 0.6 mph /  1 km/h 2.3 mph /  3.7 km/h 55 % 0.00 in /  0 mm
11:28 83.7 °F /  28.7 °C 65.8 °F /  18.8 °C 30.09 in /  1018.8 hPa NNE 1.7 mph /  2.7 km/h 4.6 mph /  7.4 km/h 55 % 0.00 in /  0 mm
11:33 84.1 °F /  28.9 °C 66.7 °F /  19.3 °C 30.10 in /  1019.2 hPa NE 2.7 mph /  4.3 km/h 5.0 mph /  8 km/h 56 % 0.00 in /  0 mm
11:38 84.3 °F /  29.1 °C 67.4 °F /  19.7 °C 30.09 in /  1018.8 hPa North 2.7 mph /  4.3 km/h 6.0 mph /  9.7 km/h 57 % 0.00 in /  0 mm
11:43 84.3 °F /  29.1 °C 65.8 °F /  18.8 °C 30.10 in /  1019.2 hPa ENE 0.6 mph /  1 km/h 3.5 mph /  5.6 km/h 54 % 0.00 in /  0 mm
11:48 84.5 °F /  29.2 °C 65.5 °F /  18.6 °C 30.09 in /  1018.8 hPa NNE 2.5 mph /  4 km/h 3.5 mph /  5.6 km/h 53 % 0.00 in /  0 mm
11:53 84.7 °F /  29.3 °C 66.2 °F /  19 °C 30.09 in /  1018.8 hPa NE 2.0 mph /  3.2 km/h 3.5 mph /  5.6 km/h 54 % 0.00 in /  0 mm
11:58 84.9 °F /  29.4 °C 65.9 °F /  18.8 °C 30.09 in /  1018.8 hPa North 3.1 mph /  5 km/h 5.8 mph /  9.3 km/h 53 % 0.00 in /  0 mm
12:03 85.1 °F /  29.5 °C 66.0 °F /  18.9 °C 30.09 in /  1018.8 hPa North 2.6 mph /  4.2 km/h 5.8 mph /  9.3 km/h 53 % 0.00 in /  0 mm
12:08 85.4 °F /  29.7 °C 67.4 °F /  19.7 °C 30.09 in /  1018.8 hPa North 2.3 mph /  3.7 km/h 5.0 mph /  8 km/h 55 % 0.00 in /  0 mm
12:13 85.2 °F /  29.6 °C 65.6 °F /  18.7 °C 30.09 in /  1018.8 hPa NNE 1.0 mph /  1.6 km/h 3.0 mph /  4.8 km/h 52 % 0.00 in /  0 mm
12:18 84.9 °F /  29.4 °C 65.3 °F /  18.5 °C 30.09 in /  1018.8 hPa North 2.0 mph /  3.2 km/h 5.8 mph /  9.3 km/h 52 % 0.00 in /  0 mm
12:24 84.6 °F /  29.2 °C 66.1 °F /  18.9 °C 30.08 in /  1018.5 hPa North 3.6 mph /  5.8 km/h 4.6 mph /  7.4 km/h 54 % 0.00 in /  0 mm
12:29 84.2 °F /  29 °C 66.3 °F /  19.1 °C 30.08 in /  1018.5 hPa NE 0.7 mph /  1.1 km/h 5.8 mph /  9.3 km/h 55 % 0.00 in /  0 mm
12:34 84.1 °F /  28.9 °C 67.7 °F /  19.8 °C 30.08 in /  1018.5 hPa NE 1.9 mph /  3.1 km/h 4.6 mph /  7.4 km/h 58 % 0.00 in /  0 mm
12:39 84.1 °F /  28.9 °C 66.2 °F /  19 °C 30.08 in /  1018.5 hPa ENE 1.6 mph /  2.6 km/h 3.5 mph /  5.6 km/h 55 % 0.00 in /  0 mm
12:44 84.1 °F /  28.9 °C 66.2 °F /  19 °C 30.08 in /  1018.5 hPa ENE 1.6 mph /  2.6 km/h 4.6 mph /  7.4 km/h 55 % 0.00 in /  0 mm
12:49 84.2 °F /  29 °C 67.8 °F /  19.9 °C 30.08 in /  1018.5 hPa ENE 1.6 mph /  2.6 km/h 3.5 mph /  5.6 km/h 58 % 0.00 in /  0 mm
12:54 84.2 °F /  29 °C 65.8 °F /  18.8 °C 30.08 in /  1018.5 hPa East 1.1 mph /  1.8 km/h 3.5 mph /  5.6 km/h 54 % 0.00 in /  0 mm
12:59 84.0 °F /  28.9 °C 67.6 °F /  19.8 °C 30.08 in /  1018.5 hPa NE 1.0 mph /  1.6 km/h 3.5 mph /  5.6 km/h 58 % 0.00 in /  0 mm
13:04 84.1 °F /  28.9 °C 68.2 °F /  20.1 °C 30.08 in /  1018.5 hPa ENE 3.0 mph /  4.8 km/h 6.9 mph /  11.1 km/h 59 % 0.00 in /  0 mm
13:09 84.1 °F /  28.9 °C 70.1 °F /  21.2 °C 30.08 in /  1018.5 hPa NNE 0.6 mph /  1 km/h 3.5 mph /  5.6 km/h 63 % 0.00 in /  0 mm
13:14 84.1 °F /  28.9 °C 68.2 °F /  20.1 °C 30.07 in /  1018.2 hPa ENE 1.8 mph /  2.9 km/h 3.5 mph /  5.6 km/h 59 % 0.00 in /  0 mm
13:19 83.8 °F /  28.8 °C 68.4 °F /  20.2 °C 30.07 in /  1018.2 hPa ENE 1.1 mph /  1.8 km/h 3.5 mph /  5.6 km/h 60 % 0.00 in /  0 mm
13:24 83.7 °F /  28.7 °C 68.3 °F /  20.2 °C 30.06 in /  1017.8 hPa ENE 3.5 mph /  5.6 km/h 4.0 mph /  6.4 km/h 60 % 0.00 in /  0 mm
13:30 83.4 °F /  28.6 °C 68.5 °F /  20.3 °C 30.07 in /  1018.2 hPa ENE 3.8 mph /  6.1 km/h 5.0 mph /  8 km/h 61 % 0.00 in /  0 mm
13:35 83.3 °F /  28.5 °C 69.4 °F /  20.8 °C 30.07 in /  1018.2 hPa ENE 1.7 mph /  2.7 km/h 4.6 mph /  7.4 km/h 63 % 0.00 in /  0 mm
13:40 83.3 °F /  28.5 °C 69.4 °F /  20.8 °C 30.06 in /  1017.8 hPa NE 2.3 mph /  3.7 km/h 3.5 mph /  5.6 km/h 63 % 0.00 in /  0 mm
13:45 83.5 °F /  28.6 °C 69.1 °F /  20.6 °C 30.06 in /  1017.8 hPa NNE 5.3 mph /  8.5 km/h 8.1 mph /  13 km/h 62 % 0.00 in /  0 mm
13:50 83.5 °F /  28.6 °C 68.6 °F /  20.3 °C 30.07 in /  1018.2 hPa NNW 1.6 mph /  2.6 km/h 3.5 mph /  5.6 km/h 61 % 0.00 in /  0 mm
13:55 83.4 °F /  28.6 °C 68.1 °F /  20.1 °C 30.06 in /  1017.8 hPa SW 3.8 mph /  6.1 km/h 6.9 mph /  11.1 km/h 60 % 0.00 in /  0 mm
14:00 83.1 °F /  28.4 °C 66.3 °F /  19.1 °C 30.07 in /  1018.2 hPa SW 1.2 mph /  1.9 km/h 3.5 mph /  5.6 km/h 57 % 0.00 in /  0 mm
14:05 82.7 °F /  28.2 °C 65.9 °F /  18.8 °C 30.07 in /  1018.2 hPa SSW 1.4 mph /  2.3 km/h 3.0 mph /  4.8 km/h 57 % 0.00 in /  0 mm
14:10 82.7 °F /  28.2 °C 66.9 °F /  19.4 °C 30.07 in /  1018.2 hPa SSW 2.4 mph /  3.9 km/h 4.0 mph /  6.4 km/h 59 % 0.00 in /  0 mm
14:15 82.8 °F /  28.2 °C 66.0 °F /  18.9 °C 30.07 in /  1018.2 hPa SW 3.2 mph /  5.1 km/h 5.8 mph /  9.3 km/h 57 % 0.00 in /  0 mm
14:20 82.7 °F /  28.2 °C 65.4 °F /  18.6 °C 30.07 in /  1018.2 hPa South 1.4 mph /  2.3 km/h 3.0 mph /  4.8 km/h 56 % 0.00 in /  0 mm
14:25 82.3 °F /  27.9 °C 64.0 °F /  17.8 °C 30.07 in /  1018.2 hPa SE 0.1 mph /  0.2 km/h 3.5 mph /  5.6 km/h 54 % 0.00 in /  0 mm
14:30 82.1 °F /  27.8 °C 64.3 °F /  17.9 °C 30.06 in /  1017.8 hPa SSW 0.4 mph /  0.6 km/h 3.5 mph /  5.6 km/h 55 % 0.00 in /  0 mm
14:35 81.7 °F /  27.6 °C 64.5 °F /  18.1 °C 30.07 in /  1018.2 hPa South 1.6 mph /  2.6 km/h 3.5 mph /  5.6 km/h 56 % 0.00 in /  0 mm
14:40 81.6 °F /  27.6 °C 65.4 °F /  18.6 °C 30.07 in /  1018.2 hPa SSE 1.0 mph /  1.6 km/h 3.5 mph /  5.6 km/h 58 % 0.00 in /  0 mm
14:45 81.5 °F /  27.5 °C 64.3 °F /  17.9 °C 30.06 in /  1017.8 hPa SW 0.8 mph /  1.3 km/h 3.5 mph /  5.6 km/h 56 % 0.00 in /  0 mm
14:50 81.6 °F /  27.6 °C 63.9 °F /  17.7 °C 30.06 in /  1017.8 hPa SE 6.0 mph /  9.7 km/h 13.8 mph /  22.2 km/h 55 % 0.00 in /  0 mm
14:55 81.4 °F /  27.4 °C 64.7 °F /  18.2 °C 30.06 in /  1017.8 hPa SE 1.3 mph /  2.1 km/h 3.5 mph /  5.6 km/h 57 % 0.00 in /  0 mm
15:00 81.3 °F /  27.4 °C 64.1 °F /  17.8 °C 30.06 in /  1017.8 hPa SSE 0.9 mph /  1.4 km/h 3.5 mph /  5.6 km/h 56 % 0.00 in /  0 mm
15:05 81.3 °F /  27.4 °C 65.1 °F /  18.4 °C 30.05 in /  1017.5 hPa South 0.6 mph /  1 km/h 3.5 mph /  5.6 km/h 58 % 0.00 in /  0 mm
15:06 81.3 °F /  27.4 °C 64.6 °F /  18.1 °C 30.05 in /  1017.5 hPa South 1.0 mph /  1.6 km/h 4.0 mph /  6.4 km/h 57 % 0.00 in /  0 mm
15:11 81.4 °F /  27.4 °C 65.7 °F /  18.7 °C 30.05 in /  1017.5 hPa SSE 0.5 mph /  0.8 km/h 2.0 mph /  3.2 km/h 59 % 0.00 in /  0 mm
15:16 81.6 °F /  27.6 °C 66.4 °F /  19.1 °C 30.05 in /  1017.5 hPa South 1.0 mph /  1.6 km/h 6.0 mph /  9.7 km/h 60 % 0.00 in /  0 mm
15:21 81.4 °F /  27.4 °C 65.2 °F /  18.4 °C 30.05 in /  1017.5 hPa SSE 3.0 mph /  4.8 km/h 10.0 mph /  16.1 km/h 58 % 0.00 in /  0 mm
15:26 81.4 °F /  27.4 °C 65.7 °F /  18.7 °C 30.05 in /  1017.5 hPa South 2.0 mph /  3.2 km/h 6.0 mph /  9.7 km/h 59 % 0.00 in /  0 mm
15:31 81.1 °F /  27.3 °C 64.9 °F /  18.3 °C 30.04 in /  1017.2 hPa SSE 0.4 mph /  0.6 km/h 3.5 mph /  5.6 km/h 58 % 0.00 in /  0 mm
15:36 80.5 °F /  26.9 °C 64.4 °F /  18 °C 30.04 in /  1017.2 hPa SE 0.2 mph /  0.3 km/h 4.6 mph /  7.4 km/h 58 % 0.00 in /  0 mm
15:41 80.3 °F /  26.8 °C 65.1 °F /  18.4 °C 30.04 in /  1017.2 hPa SSE 1.0 mph /  1.6 km/h 6.0 mph /  9.7 km/h 60 % 0.00 in /  0 mm
15:46 80.3 °F /  26.8 °C 65.6 °F /  18.7 °C 30.04 in /  1017.2 hPa Calm   6.0 mph /  9.7 km/h 61 % 0.00 in /  0 mm
15:51 80.4 °F /  26.9 °C 65.7 °F /  18.7 °C 30.04 in /  1017.2 hPa SSW 1.0 mph /  1.6 km/h 3.0 mph /  4.8 km/h 61 % 0.00 in /  0 mm
15:56 80.4 °F /  26.9 °C 63.3 °F /  17.4 °C 30.04 in /  1017.2 hPa SSW 1.0 mph /  1.6 km/h 4.0 mph /  6.4 km/h 56 % 0.00 in /  0 mm
16:01 80.5 °F /  26.9 °C 65.3 °F /  18.5 °C 30.03 in /  1016.8 hPa South 0.6 mph /  1 km/h 3.5 mph /  5.6 km/h 60 % 0.00 in /  0 mm
16:06 80.5 °F /  26.9 °C 64.4 °F /  18 °C 30.03 in /  1016.8 hPa SE 0.7 mph /  1.1 km/h 3.5 mph /  5.6 km/h 58 % 0.00 in /  0 mm
16:11 80.4 °F /  26.9 °C 64.3 °F /  17.9 °C 30.03 in /  1016.8 hPa WSW 0.2 mph /  0.3 km/h 1.2 mph /  1.9 km/h 58 % 0.00 in /  0 mm
16:16 80.5 °F /  26.9 °C 64.4 °F /  18 °C 30.03 in /  1016.8 hPa SSE 0.7 mph /  1.1 km/h 3.0 mph /  4.8 km/h 58 % 0.00 in /  0 mm
16:21 80.6 °F /  27 °C 62.9 °F /  17.2 °C 30.03 in /  1016.8 hPa SE 1.9 mph /  3.1 km/h 5.0 mph /  8 km/h 55 % 0.00 in /  0 mm
16:26 80.3 °F /  26.8 °C 63.2 °F /  17.3 °C 30.03 in /  1016.8 hPa SE 5.4 mph /  8.7 km/h 8.1 mph /  13 km/h 56 % 0.00 in /  0 mm
16:31 80.2 °F /  26.8 °C 63.1 °F /  17.3 °C 30.03 in /  1016.8 hPa South 1.5 mph /  2.4 km/h 5.8 mph /  9.3 km/h 56 % 0.00 in /  0 mm
16:36 80.1 °F /  26.7 °C 63.5 °F /  17.5 °C 30.03 in /  1016.8 hPa SE 1.2 mph /  1.9 km/h 3.5 mph /  5.6 km/h 57 % 0.00 in /  0 mm
16:41 80.1 °F /  26.7 °C 63.0 °F /  17.2 °C 30.03 in /  1016.8 hPa SW 2.1 mph /  3.4 km/h 4.0 mph /  6.4 km/h 56 % 0.00 in /  0 mm
16:46 80.3 °F /  26.8 °C 63.2 °F /  17.3 °C 30.03 in /  1016.8 hPa SSE 1.1 mph /  1.8 km/h 3.5 mph /  5.6 km/h 56 % 0.00 in /  0 mm
16:51 80.2 °F /  26.8 °C 62.0 °F /  16.7 °C 30.03 in /  1016.8 hPa SW 1.3 mph /  2.1 km/h 8.1 mph /  13 km/h 54 % 0.00 in /  0 mm
16:56 80.2 °F /  26.8 °C 62.6 °F /  17 °C 30.03 in /  1016.8 hPa South 0.8 mph /  1.3 km/h 2.3 mph /  3.7 km/h 55 % 0.00 in /  0 mm
17:01 80.2 °F /  26.8 °C 61.5 °F /  16.4 °C 30.03 in /  1016.8 hPa SE 1.2 mph /  1.9 km/h 2.3 mph /  3.7 km/h 53 % 0.00 in /  0 mm
17:06 79.9 °F /  26.6 °C 60.7 °F /  15.9 °C 30.03 in /  1016.8 hPa SE 2.6 mph /  4.2 km/h 11.5 mph /  18.5 km/h 52 % 0.00 in /  0 mm
17:11 79.1 °F /  26.2 °C 61.0 °F /  16.1 °C 30.03 in /  1016.8 hPa SE 4.5 mph /  7.2 km/h 10.4 mph /  16.7 km/h 54 % 0.00 in /  0 mm
17:17 78.4 °F /  25.8 °C 60.9 °F /  16.1 °C 30.03 in /  1016.8 hPa SSE 2.0 mph /  3.2 km/h 6.9 mph /  11.1 km/h 55 % 0.00 in /  0 mm
17:21 78.1 °F /  25.6 °C 61.6 °F /  16.4 °C 30.03 in /  1016.8 hPa SE 2.8 mph /  4.5 km/h 4.0 mph /  6.4 km/h 57 % 0.00 in /  0 mm
17:27 77.9 °F /  25.5 °C 60.4 °F /  15.8 °C 30.03 in /  1016.8 hPa SE 0.4 mph /  0.6 km/h 1.2 mph /  1.9 km/h 55 % 0.00 in /  0 mm
17:32 77.8 °F /  25.4 °C 60.3 °F /  15.7 °C 30.03 in /  1016.8 hPa SSE 1.5 mph /  2.4 km/h 5.0 mph /  8 km/h 55 % 0.00 in /  0 mm
17:37 77.5 °F /  25.3 °C 59.5 °F /  15.3 °C 30.02 in /  1016.5 hPa SSE 3.5 mph /  5.6 km/h 8.1 mph /  13 km/h 54 % 0.00 in /  0 mm
17:42 77.3 °F /  25.2 °C 59.4 °F /  15.2 °C 30.03 in /  1016.8 hPa SSE 0.3 mph /  0.5 km/h 4.6 mph /  7.4 km/h 54 % 0.00 in /  0 mm
17:47 77.2 °F /  25.1 °C 59.3 °F /  15.2 °C 30.02 in /  1016.5 hPa SSE 1.1 mph /  1.8 km/h 2.3 mph /  3.7 km/h 54 % 0.00 in /  0 mm
17:52 77.2 °F /  25.1 °C 59.3 °F /  15.2 °C 30.02 in /  1016.5 hPa SSE 0.7 mph /  1.1 km/h 2.3 mph /  3.7 km/h 54 % 0.00 in /  0 mm
17:57 77.3 °F /  25.2 °C 58.8 °F /  14.9 °C 30.02 in /  1016.5 hPa SSW 0.5 mph /  0.8 km/h 1.2 mph /  1.9 km/h 53 % 0.00 in /  0 mm
18:02 77.4 °F /  25.2 °C 58.9 °F /  14.9 °C 30.02 in /  1016.5 hPa South 1.4 mph /  2.3 km/h 3.5 mph /  5.6 km/h 53 % 0.00 in /  0 mm
18:07 77.4 °F /  25.2 °C 58.4 °F /  14.7 °C 30.02 in /  1016.5 hPa SE 2.2 mph /  3.5 km/h 4.6 mph /  7.4 km/h 52 % 0.00 in /  0 mm
18:12 77.4 °F /  25.2 °C 57.9 °F /  14.4 °C 30.02 in /  1016.5 hPa SSW 1.5 mph /  2.4 km/h 4.0 mph /  6.4 km/h 51 % 0.00 in /  0 mm
18:17 77.3 °F /  25.2 °C 57.8 °F /  14.3 °C 30.01 in /  1016.1 hPa SSW 1.3 mph /  2.1 km/h 3.5 mph /  5.6 km/h 51 % 0.00 in /  0 mm
18:22 77.2 °F /  25.1 °C 57.7 °F /  14.3 °C 30.01 in /  1016.1 hPa South 0.1 mph /  0.2 km/h 2.3 mph /  3.7 km/h 51 % 0.00 in /  0 mm
18:27 77.0 °F /  25 °C 56.9 °F /  13.8 °C 30.01 in /  1016.1 hPa ESE 1.1 mph /  1.8 km/h 4.6 mph /  7.4 km/h 50 % 0.00 in /  0 mm
18:32 76.7 °F /  24.8 °C 57.2 °F /  14 °C 30.01 in /  1016.1 hPa SSE 0.9 mph /  1.4 km/h 8.1 mph /  13 km/h 51 % 0.00 in /  0 mm
18:37 76.4 °F /  24.7 °C 56.9 °F /  13.8 °C 30.01 in /  1016.1 hPa SE 1.4 mph /  2.3 km/h 3.5 mph /  5.6 km/h 51 % 0.00 in /  0 mm
18:42 76.2 °F /  24.6 °C 57.8 °F /  14.3 °C 30.01 in /  1016.1 hPa SE 1.2 mph /  1.9 km/h 3.5 mph /  5.6 km/h 53 % 0.00 in /  0 mm
18:47 76.1 °F /  24.5 °C 58.8 °F /  14.9 °C 30.01 in /  1016.1 hPa SE 0.2 mph /  0.3 km/h 1.2 mph /  1.9 km/h 55 % 0.00 in /  0 mm
18:52 76.0 °F /  24.4 °C 58.7 °F /  14.8 °C 30.01 in /  1016.1 hPa Calm     55 % 0.00 in /  0 mm
18:57 75.8 °F /  24.3 °C 58.5 °F /  14.7 °C 30.01 in /  1016.1 hPa SE 1.2 mph /  1.9 km/h 3.5 mph /  5.6 km/h 55 % 0.00 in /  0 mm
18:58 75.8 °F /  24.3 °C 58.5 °F /  14.7 °C 30.01 in /  1016.1 hPa SE 0.1 mph /  0.2 km/h 3.5 mph /  5.6 km/h 55 % 0.00 in /  0 mm
19:03 75.7 °F /  24.3 °C 58.9 °F /  14.9 °C 30.00 in /  1015.8 hPa SE 1.8 mph /  2.9 km/h 3.0 mph /  4.8 km/h 56 % 0.00 in /  0 mm
19:08 75.5 °F /  24.2 °C 59.2 °F /  15.1 °C 30.00 in /  1015.8 hPa SE 1.6 mph /  2.6 km/h 3.5 mph /  5.6 km/h 57 % 0.00 in /  0 mm
19:13 75.4 °F /  24.1 °C 59.1 °F /  15.1 °C 30.00 in /  1015.8 hPa SE 2.9 mph /  4.7 km/h 5.8 mph /  9.3 km/h 57 % 0.00 in /  0 mm
19:19 75.2 °F /  24 °C 59.4 °F /  15.2 °C 30.00 in /  1015.8 hPa SE 0.3 mph /  0.5 km/h 3.5 mph /  5.6 km/h 58 % 0.00 in /  0 mm
19:24 75.0 °F /  23.9 °C 59.7 °F /  15.4 °C 30.00 in /  1015.8 hPa Calm   5.8 mph /  9.3 km/h 59 % 0.00 in /  0 mm
19:29 74.9 °F /  23.8 °C 59.6 °F /  15.3 °C 30.00 in /  1015.8 hPa SE 1.7 mph /  2.7 km/h 5.0 mph /  8 km/h 59 % 0.00 in /  0 mm
19:34 74.8 °F /  23.8 °C 60.0 °F /  15.6 °C 30.00 in /  1015.8 hPa Calm   3.5 mph /  5.6 km/h 60 % 0.00 in /  0 mm
19:39 74.7 °F /  23.7 °C 60.4 °F /  15.8 °C 30.00 in /  1015.8 hPa Calm   1.2 mph /  1.9 km/h 61 % 0.00 in /  0 mm
19:44 74.6 °F /  23.7 °C 60.3 °F /  15.7 °C 30.00 in /  1015.8 hPa SE 3.8 mph /  6.1 km/h 6.9 mph /  11.1 km/h 61 % 0.00 in /  0 mm
19:49 74.4 °F /  23.6 °C 60.5 °F /  15.8 °C 30.00 in /  1015.8 hPa SE 2.3 mph /  3.7 km/h 3.5 mph /  5.6 km/h 62 % 0.00 in /  0 mm
19:54 74.3 °F /  23.5 °C 60.9 °F /  16.1 °C 30.00 in /  1015.8 hPa Calm   1.2 mph /  1.9 km/h 63 % 0.00 in /  0 mm
19:59 74.3 °F /  23.5 °C 61.8 °F /  16.6 °C 30.00 in /  1015.8 hPa East 0.2 mph /  0.3 km/h 3.5 mph /  5.6 km/h 65 % 0.00 in /  0 mm
20:04 74.2 °F /  23.4 °C 62.1 °F /  16.7 °C 30.00 in /  1015.8 hPa WSW 0.3 mph /  0.5 km/h 3.5 mph /  5.6 km/h 66 % 0.00 in /  0 mm
20:09 74.1 °F /  23.4 °C 62.4 °F /  16.9 °C 30.00 in /  1015.8 hPa Calm   2.3 mph /  3.7 km/h 67 % 0.00 in /  0 mm
20:14 74.0 °F /  23.3 °C 62.3 °F /  16.8 °C 30.00 in /  1015.8 hPa SE 0.2 mph /  0.3 km/h 2.3 mph /  3.7 km/h 67 % 0.00 in /  0 mm
20:19 73.9 °F /  23.3 °C 62.2 °F /  16.8 °C 30.00 in /  1015.8 hPa Calm   1.2 mph /  1.9 km/h 67 % 0.00 in /  0 mm
20:24 73.8 °F /  23.2 °C 62.6 °F /  17 °C 30.00 in /  1015.8 hPa SE 0.7 mph /  1.1 km/h 3.5 mph /  5.6 km/h 68 % 0.00 in /  0 mm
20:29 73.7 °F /  23.2 °C 62.5 °F /  16.9 °C 30.00 in /  1015.8 hPa Calm   1.2 mph /  1.9 km/h 68 % 0.00 in /  0 mm
20:34 73.6 °F /  23.1 °C 62.8 °F /  17.1 °C 30.00 in /  1015.8 hPa Calm   1.2 mph /  1.9 km/h 69 % 0.00 in /  0 mm
20:39 73.6 °F /  23.1 °C 62.8 °F /  17.1 °C 30.00 in /  1015.8 hPa WSW 0.3 mph /  0.5 km/h 1.2 mph /  1.9 km/h 69 % 0.00 in /  0 mm
20:44 73.5 °F /  23.1 °C 62.7 °F /  17.1 °C 30.00 in /  1015.8 hPa SSW 0.2 mph /  0.3 km/h 1.2 mph /  1.9 km/h 69 % 0.00 in /  0 mm
20:49 73.4 °F /  23 °C 62.6 °F /  17 °C 30.00 in /  1015.8 hPa SW 0.8 mph /  1.3 km/h 2.3 mph /  3.7 km/h 69 % 0.00 in /  0 mm
20:54 73.3 °F /  22.9 °C 62.5 °F /  16.9 °C 30.00 in /  1015.8 hPa Calm     69 % 0.00 in /  0 mm
20:59 73.2 °F /  22.9 °C 62.4 °F /  16.9 °C 30.01 in /  1016.1 hPa South 0.4 mph /  0.6 km/h 2.0 mph /  3.2 km/h 69 % 0.00 in /  0 mm
21:04 73.1 °F /  22.8 °C 62.3 °F /  16.8 °C 30.00 in /  1015.8 hPa SSW 1.0 mph /  1.6 km/h 2.3 mph /  3.7 km/h 69 % 0.00 in /  0 mm
21:09 73.1 °F /  22.8 °C 62.3 °F /  16.8 °C 30.00 in /  1015.8 hPa Calm   1.2 mph /  1.9 km/h 69 % 0.00 in /  0 mm
21:14 73.0 °F /  22.8 °C 62.2 °F /  16.8 °C 30.00 in /  1015.8 hPa SE 0.1 mph /  0.2 km/h 1.2 mph /  1.9 km/h 69 % 0.00 in /  0 mm
21:19 72.9 °F /  22.7 °C 62.5 °F /  16.9 °C 30.00 in /  1015.8 hPa Calm   1.2 mph /  1.9 km/h 70 % 0.00 in /  0 mm
21:24 72.8 °F /  22.7 °C 62.4 °F /  16.9 °C 30.00 in /  1015.8 hPa SSE 2.8 mph /  4.5 km/h 5.0 mph /  8 km/h 70 % 0.00 in /  0 mm
21:29 72.8 °F /  22.7 °C 62.8 °F /  17.1 °C 30.00 in /  1015.8 hPa Calm   2.3 mph /  3.7 km/h 71 % 0.00 in /  0 mm
21:30 72.7 °F /  22.6 °C 62.8 °F /  17.1 °C 30.00 in /  1015.8 hPa Calm     71 % 0.00 in /  0 mm
21:35 72.7 °F /  22.6 °C 62.8 °F /  17.1 °C 30.00 in /  1015.8 hPa Calm     71 % 0.00 in /  0 mm
21:40 72.6 °F /  22.6 °C 62.7 °F /  17.1 °C 30.00 in /  1015.8 hPa SE 0.5 mph /  0.8 km/h 2.3 mph /  3.7 km/h 71 % 0.00 in /  0 mm
21:45 72.5 °F /  22.5 °C 62.6 °F /  17 °C 30.00 in /  1015.8 hPa SE 0.3 mph /  0.5 km/h 3.5 mph /  5.6 km/h 71 % 0.00 in /  0 mm
21:50 72.5 °F /  22.5 °C 62.6 °F /  17 °C 30.00 in /  1015.8 hPa Calm     71 % 0.00 in /  0 mm
21:55 72.4 °F /  22.4 °C 62.9 °F /  17.2 °C 30.00 in /  1015.8 hPa Calm   2.3 mph /  3.7 km/h 72 % 0.00 in /  0 mm
22:00 72.4 °F /  22.4 °C 62.9 °F /  17.2 °C 30.00 in /  1015.8 hPa South 0.6 mph /  1 km/h 2.0 mph /  3.2 km/h 72 % 0.00 in /  0 mm
22:06 72.3 °F /  22.4 °C 62.8 °F /  17.1 °C 30.00 in /  1015.8 hPa SSE 1.0 mph /  1.6 km/h 4.0 mph /  6.4 km/h 72 % 0.00 in /  0 mm
22:11 72.3 °F /  22.4 °C 62.8 °F /  17.1 °C 29.99 in /  1015.5 hPa Calm   3.0 mph /  4.8 km/h 72 % 0.00 in /  0 mm
22:16 72.3 °F /  22.4 °C 62.8 °F /  17.1 °C 29.99 in /  1015.5 hPa SE 2.0 mph /  3.2 km/h 5.0 mph /  8 km/h 72 % 0.00 in /  0 mm
22:21 72.3 °F /  22.4 °C 62.8 °F /  17.1 °C 29.99 in /  1015.5 hPa Calm   3.0 mph /  4.8 km/h 72 % 0.00 in /  0 mm
22:26 72.3 °F /  22.4 °C 62.8 °F /  17.1 °C 29.99 in /  1015.5 hPa SE 1.0 mph /  1.6 km/h 5.0 mph /  8 km/h 72 % 0.00 in /  0 mm
22:31 72.3 °F /  22.4 °C 62.8 °F /  17.1 °C 29.99 in /  1015.5 hPa SE 1.0 mph /  1.6 km/h 4.0 mph /  6.4 km/h 72 % 0.00 in /  0 mm
22:36 72.3 °F /  22.4 °C 62.8 °F /  17.1 °C 29.99 in /  1015.5 hPa Calm   3.0 mph /  4.8 km/h 72 % 0.00 in /  0 mm
22:41 72.3 °F /  22.4 °C 62.7 °F /  17.1 °C 29.99 in /  1015.5 hPa Calm   1.0 mph /  1.6 km/h 72 % 0.00 in /  0 mm
22:46 72.2 °F /  22.3 °C 62.7 °F /  17.1 °C 29.99 in /  1015.5 hPa Calm   2.0 mph /  3.2 km/h 72 % 0.00 in /  0 mm
22:50 72.2 °F /  22.3 °C 62.3 °F /  16.8 °C 29.99 in /  1015.5 hPa Calm   2.0 mph /  3.2 km/h 71 % 0.00 in /  0 mm
22:56 72.2 °F /  22.3 °C 62.7 °F /  17.1 °C 29.98 in /  1015.1 hPa SE 1.0 mph /  1.6 km/h 4.0 mph /  6.4 km/h 72 % 0.00 in /  0 mm
23:01 72.2 °F /  22.3 °C 62.7 °F /  17.1 °C 29.98 in /  1015.1 hPa Calm   2.3 mph /  3.7 km/h 72 % 0.00 in /  0 mm
23:06 72.1 °F /  22.3 °C 62.6 °F /  17 °C 29.97 in /  1014.8 hPa Calm     72 % 0.00 in /  0 mm
23:11 72.1 °F /  22.3 °C 63.0 °F /  17.2 °C 29.97 in /  1014.8 hPa Calm     73 % 0.00 in /  0 mm
23:16 72.1 °F /  22.3 °C 63.0 °F /  17.2 °C 29.97 in /  1014.8 hPa Calm     73 % 0.00 in /  0 mm
23:21 72.0 °F /  22.2 °C 62.5 °F /  16.9 °C 29.97 in /  1014.8 hPa Calm     72 % 0.00 in /  0 mm
23:26 72.0 °F /  22.2 °C 62.9 °F /  17.2 °C 29.97 in /  1014.8 hPa Calm     73 % 0.00 in /  0 mm
23:31 71.9 °F /  22.2 °C 62.8 °F /  17.1 °C 29.97 in /  1014.8 hPa Calm     73 % 0.00 in /  0 mm
23:36 71.8 °F /  22.1 °C 62.7 °F /  17.1 °C 29.97 in /  1014.8 hPa Calm     73 % 0.00 in /  0 mm
23:41 71.7 °F /  22.1 °C 62.6 °F /  17 °C 29.97 in /  1014.8 hPa Calm     73 % 0.00 in /  0 mm
23:46 71.7 °F /  22.1 °C 63.0 °F /  17.2 °C 29.96 in /  1014.4 hPa Calm     74 % 0.00 in /  0 mm
23:51 71.6 °F /  22 °C 62.9 °F /  17.2 °C 29.96 in /  1014.4 hPa Calm     74 % 0.00 in /  0 mm
23:56 71.5 °F /  21.9 °C 63.2 °F /  17.3 °C 29.96 in /  1014.4 hPa Calm     75 % 0.00 in /  0 mm
Crab Meadow Weather
Compliments of Weather Underground - 3 mb

Script developed by  Jim McMurry - jmcmurry@mwt.net Adapted for the template by  Wim van der Kuil - Leuven-Template.eu

Weather Terms: Wind Chill - An apparent temperature that describes the combined effect of wind and low temperature on exposed skin.